sensor_id;sensor_type;location;lat;lon;timestamp;pressure;altitude;pressure_sealevel;temperature;humidity
9281;BME280;4679;47.966;7.958;2023-02-21T06:41:04;97568.31;;;1.26;75.32
9281;BME280;4679;47.966;7.958;2023-02-21T06:43:06;97571.56;;;1.28;74.91
9281;BME280;4679;47.966;7.958;2023-02-21T06:45:08;97574.81;;;1.30;75.16
9281;BME280;4679;47.966;7.958;2023-02-21T06:47:09;97571.22;;;1.31;75.27
9281;BME280;4679;47.966;7.958;2023-02-21T06:49:11;97571.22;;;1.31;75.02
9281;BME280;4679;47.966;7.958;2023-02-21T06:51:13;97578.41;;;1.29;75.18
9281;BME280;4679;47.966;7.958;2023-02-21T06:53:15;97575.63;;;1.31;74.99
9281;BME280;4679;47.966;7.958;2023-02-21T06:55:19;97575.81;;;1.29;75.41
9281;BME280;4679;47.966;7.958;2023-02-21T06:57:22;97580.09;;;1.22;75.36
9281;BME280;4679;47.966;7.958;2023-02-21T06:59:23;97577.94;;;1.26;75.10
9281;BME280;4679;47.966;7.958;2023-02-21T07:01:26;97584.34;;;1.23;75.70
9281;BME280;4679;47.966;7.958;2023-02-21T07:03:28;97581.84;;;1.30;75.49
9281;BME280;4679;47.966;7.958;2023-02-21T07:05:30;97585.22;;;1.38;75.31
9281;BME280;4679;47.966;7.958;2023-02-21T07:07:34;97581.91;;;1.45;75.12
9281;BME280;4679;47.966;7.958;2023-02-21T07:09:35;97586.16;;;1.46;75.37
9281;BME280;4679;47.966;7.958;2023-02-21T07:11:37;97585.50;;;1.44;74.79
9281;BME280;4679;47.966;7.958;2023-02-21T07:13:40;97578.13;;;1.47;75.02
9281;BME280;4679;47.966;7.958;2023-02-21T07:15:42;97587.09;;;1.53;75.10
9281;BME280;4679;47.966;7.958;2023-02-21T07:17:43;97589.47;;;1.62;74.60
9281;BME280;4679;47.966;7.958;2023-02-21T07:19:45;97584.88;;;1.64;75.32
9281;BME280;4679;47.966;7.958;2023-02-21T07:21:47;97591.19;;;1.70;74.63
9281;BME280;4679;47.966;7.958;2023-02-21T07:23:48;97598.00;;;1.79;74.41
9281;BME280;4679;47.966;7.958;2023-02-21T07:25:50;97598.91;;;1.86;74.24
9281;BME280;4679;47.966;7.958;2023-02-21T07:27:52;97593.63;;;1.94;74.12
9281;BME280;4679;47.966;7.958;2023-02-21T07:29:55;97590.91;;;2.02;74.53
9281;BME280;4679;47.966;7.958;2023-02-21T07:31:56;97583.81;;;2.11;74.70
9281;BME280;4679;47.966;7.958;2023-02-21T07:33:58;97586.69;;;2.16;74.37
9281;BME280;4679;47.966;7.958;2023-02-21T07:36:00;97579.94;;;2.22;73.96
9281;BME280;4679;47.966;7.958;2023-02-21T07:38:02;97582.91;;;2.33;74.26
9281;BME280;4679;47.966;7.958;2023-02-21T07:40:04;97578.41;;;2.42;73.57
9281;BME280;4679;47.966;7.958;2023-02-21T07:42:07;97586.00;;;2.52;73.91
9281;BME280;4679;47.966;7.958;2023-02-21T07:44:09;97579.28;;;2.64;73.49
9281;BME280;4679;47.966;7.958;2023-02-21T07:46:13;97583.06;;;2.76;73.24
9281;BME280;4679;47.966;7.958;2023-02-21T07:48:16;97588.56;;;2.96;73.13
9281;BME280;4679;47.966;7.958;2023-02-21T07:50:18;97586.19;;;3.15;73.28
9281;BME280;4679;47.966;7.958;2023-02-21T07:52:19;97590.06;;;3.41;72.83
9281;BME280;4679;47.966;7.958;2023-02-21T07:54:21;97588.47;;;3.61;72.56
9281;BME280;4679;47.966;7.958;2023-02-21T07:56:23;97587.19;;;3.78;72.33
9281;BME280;4679;47.966;7.958;2023-02-21T07:58:25;97589.47;;;3.81;72.08
9281;BME280;4679;47.966;7.958;2023-02-21T08:00:26;97587.06;;;3.86;72.05
9281;BME280;4679;47.966;7.958;2023-02-21T08:02:29;97583.50;;;3.94;72.10
9281;BME280;4679;47.966;7.958;2023-02-21T08:04:31;97586.16;;;4.01;71.87
9281;BME280;4679;47.966;7.958;2023-02-21T08:06:33;97581.41;;;4.11;70.96
9281;BME280;4679;47.966;7.958;2023-02-21T08:08:35;97576.81;;;4.19;71.53
9281;BME280;4679;47.966;7.958;2023-02-21T08:10:37;97585.97;;;4.30;71.59
9281;BME280;4679;47.966;7.958;2023-02-21T08:12:38;97582.19;;;4.39;71.34
9281;BME280;4679;47.966;7.958;2023-02-21T08:14:40;97584.66;;;4.47;71.48
9281;BME280;4679;47.966;7.958;2023-02-21T08:16:42;97588.59;;;4.58;71.00
9281;BME280;4679;47.966;7.958;2023-02-21T08:18:47;97585.03;;;4.72;71.02
9281;BME280;4679;47.966;7.958;2023-02-21T08:20:50;97577.59;;;4.89;70.86
9281;BME280;4679;47.966;7.958;2023-02-21T08:22:52;97575.44;;;5.06;70.58
9281;BME280;4679;47.966;7.958;2023-02-21T08:24:54;97572.25;;;5.23;69.93
9281;BME280;4679;47.966;7.958;2023-02-21T08:26:56;97569.84;;;5.35;70.25
9281;BME280;4679;47.966;7.958;2023-02-21T08:28:58;97567.06;;;5.50;69.56
9281;BME280;4679;47.966;7.958;2023-02-21T08:30:59;97572.53;;;5.61;69.43
9281;BME280;4679;47.966;7.958;2023-02-21T08:33:01;97566.69;;;5.73;69.11
9281;BME280;4679;47.966;7.958;2023-02-21T08:35:05;97565.88;;;5.85;68.76
9281;BME280;4679;47.966;7.958;2023-02-21T08:37:07;97570.97;;;6.07;68.89
9281;BME280;4679;47.966;7.958;2023-02-21T08:39:19;97562.25;;;6.26;68.31
9281;BME280;4679;47.966;7.958;2023-02-21T08:41:20;97558.75;;;6.45;68.26
9281;BME280;4679;47.966;7.958;2023-02-21T08:43:23;97557.50;;;6.61;67.72
9281;BME280;4679;47.966;7.958;2023-02-21T08:45:25;97558.25;;;6.75;68.61
9281;BME280;4679;47.966;7.958;2023-02-21T08:47:27;97558.44;;;6.86;67.68
9281;BME280;4679;47.966;7.958;2023-02-21T08:49:29;97558.53;;;7.04;67.55
9281;BME280;4679;47.966;7.958;2023-02-21T08:51:32;97556.44;;;7.20;66.95
9281;BME280;4679;47.966;7.958;2023-02-21T08:53:34;97556.75;;;7.36;66.68
9281;BME280;4679;47.966;7.958;2023-02-21T08:55:35;97547.50;;;7.52;66.27
9281;BME280;4679;47.966;7.958;2023-02-21T08:57:37;97549.50;;;7.63;66.49
9281;BME280;4679;47.966;7.958;2023-02-21T08:59:39;97550.03;;;7.72;65.95
9281;BME280;4679;47.966;7.958;2023-02-21T09:01:41;97545.44;;;7.86;65.79
9281;BME280;4679;47.966;7.958;2023-02-21T09:03:43;97541.28;;;7.96;65.51
9281;BME280;4679;47.966;7.958;2023-02-21T09:05:45;97540.59;;;8.07;65.36
9281;BME280;4679;47.966;7.958;2023-02-21T09:07:48;97536.94;;;8.27;64.91
9281;BME280;4679;47.966;7.958;2023-02-21T09:09:50;97538.41;;;8.48;64.54
9281;BME280;4679;47.966;7.958;2023-02-21T09:11:51;97536.81;;;8.65;63.95
9281;BME280;4679;47.966;7.958;2023-02-21T09:13:53;97529.88;;;8.82;63.90
9281;BME280;4679;47.966;7.958;2023-02-21T09:15:55;97530.09;;;8.99;63.44
9281;BME280;4679;47.966;7.958;2023-02-21T09:17:57;97530.81;;;9.06;63.15
9281;BME280;4679;47.966;7.958;2023-02-21T09:20:00;97530.72;;;9.12;63.27
9281;BME280;4679;47.966;7.958;2023-02-21T09:22:05;97524.66;;;9.24;62.80
9281;BME280;4679;47.966;7.958;2023-02-21T09:24:08;97521.00;;;9.36;62.32
9281;BME280;4679;47.966;7.958;2023-02-21T09:26:10;97523.13;;;9.46;62.04
9281;BME280;4679;47.966;7.958;2023-02-21T09:28:12;97523.25;;;9.51;62.24
9281;BME280;4679;47.966;7.958;2023-02-21T09:30:16;97524.88;;;9.64;61.44
9281;BME280;4679;47.966;7.958;2023-02-21T09:32:18;97521.69;;;9.73;61.81
9281;BME280;4679;47.966;7.958;2023-02-21T09:34:20;97509.84;;;9.87;60.71
9281;BME280;4679;47.966;7.958;2023-02-21T09:36:22;97514.34;;;9.99;60.08
9281;BME280;4679;47.966;7.958;2023-02-21T09:38:23;97516.31;;;10.15;60.59
9281;BME280;4679;47.966;7.958;2023-02-21T09:40:33;97510.34;;;10.31;60.04
9281;BME280;4679;47.966;7.958;2023-02-21T09:42:36;97510.91;;;10.45;59.35
9281;BME280;4679;47.966;7.958;2023-02-21T09:44:41;97504.75;;;10.56;59.67
9281;BME280;4679;47.966;7.958;2023-02-21T09:46:44;97496.22;;;10.66;59.27
9281;BME280;4679;47.966;7.958;2023-02-21T09:48:46;97502.06;;;10.79;59.02
9281;BME280;4679;47.966;7.958;2023-02-21T09:50:52;97498.34;;;10.92;58.96
9281;BME280;4679;47.966;7.958;2023-02-21T09:52:55;97498.06;;;11.05;58.98
9281;BME280;4679;47.966;7.958;2023-02-21T09:54:59;97502.78;;;11.15;59.01
9281;BME280;4679;47.966;7.958;2023-02-21T09:57:06;97497.75;;;11.18;57.46
9281;BME280;4679;47.966;7.958;2023-02-21T09:59:12;97494.69;;;11.10;57.72
9281;BME280;4679;47.966;7.958;2023-02-21T10:01:21;97488.84;;;11.24;57.86
9281;BME280;4679;47.966;7.958;2023-02-21T10:03:36;97486.53;;;11.28;57.54
9281;BME280;4679;47.966;7.958;2023-02-21T10:05:43;97481.88;;;11.35;57.49
9281;BME280;4679;47.966;7.958;2023-02-21T10:07:52;97493.19;;;11.59;56.82
9281;BME280;4679;47.966;7.958;2023-02-21T10:09:59;97484.31;;;11.70;55.94
9281;BME280;4679;47.966;7.958;2023-02-21T10:12:11;97486.84;;;11.77;55.67
9281;BME280;4679;47.966;7.958;2023-02-21T10:14:24;97484.25;;;11.82;55.82
9281;BME280;4679;47.966;7.958;2023-02-21T10:16:32;97481.38;;;12.00;55.01
9281;BME280;4679;47.966;7.958;2023-02-21T10:18:38;97479.72;;;12.16;55.45
9281;BME280;4679;47.966;7.958;2023-02-21T10:20:45;97484.63;;;12.24;55.37
9281;BME280;4679;47.966;7.958;2023-02-21T10:22:49;97482.69;;;12.36;54.49
9281;BME280;4679;47.966;7.958;2023-02-21T10:24:53;97485.47;;;12.46;54.47
9281;BME280;4679;47.966;7.958;2023-02-21T10:26:59;97484.41;;;12.47;54.13
9281;BME280;4679;47.966;7.958;2023-02-21T10:29:06;97485.66;;;12.61;54.17
9281;BME280;4679;47.966;7.958;2023-02-21T10:31:13;97479.53;;;12.83;54.13
9281;BME280;4679;47.966;7.958;2023-02-21T10:33:17;97476.38;;;12.86;53.42
9281;BME280;4679;47.966;7.958;2023-02-21T10:35:18;97466.34;;;12.93;53.53
9281;BME280;4679;47.966;7.958;2023-02-21T10:37:31;97465.19;;;13.11;53.29
9281;BME280;4679;47.966;7.958;2023-02-21T10:39:38;97462.16;;;13.24;52.92
9281;BME280;4679;47.966;7.958;2023-02-21T10:41:41;97467.25;;;13.25;52.42
9281;BME280;4679;47.966;7.958;2023-02-21T10:43:46;97463.31;;;13.33;52.40
9281;BME280;4679;47.966;7.958;2023-02-21T10:45:54;97466.47;;;13.57;52.31
9281;BME280;4679;47.966;7.958;2023-02-21T10:47:59;97467.16;;;13.74;52.11
9281;BME280;4679;47.966;7.958;2023-02-21T10:50:05;97466.06;;;13.75;52.05
9281;BME280;4679;47.966;7.958;2023-02-21T10:52:11;97464.34;;;13.96;51.87
9281;BME280;4679;47.966;7.958;2023-02-21T10:54:18;97458.00;;;14.02;51.65
9281;BME280;4679;47.966;7.958;2023-02-21T10:56:26;97457.66;;;13.88;51.89
9281;BME280;4679;47.966;7.958;2023-02-21T10:58:29;97454.44;;;13.86;51.80
9281;BME280;4679;47.966;7.958;2023-02-21T11:00:33;97451.22;;;13.84;51.74
9281;BME280;4679;47.966;7.958;2023-02-21T11:04:28;97443.16;;;14.21;51.19
9281;BME280;4679;47.966;7.958;2023-02-21T11:06:35;97437.09;;;14.31;51.05
9281;BME280;4679;47.966;7.958;2023-02-21T11:08:40;97440.38;;;14.43;51.15
9281;BME280;4679;47.966;7.958;2023-02-21T11:10:42;97432.66;;;14.52;50.92
9281;BME280;4679;47.966;7.958;2023-02-21T11:13:00;97432.94;;;14.55;50.67
9281;BME280;4679;47.966;7.958;2023-02-21T11:15:15;97428.16;;;14.57;50.80
9281;BME280;4679;47.966;7.958;2023-02-21T11:17:18;97425.47;;;14.52;50.98
9281;BME280;4679;47.966;7.958;2023-02-21T11:19:20;97422.97;;;14.35;50.98
9281;BME280;4679;47.966;7.958;2023-02-21T11:21:23;97420.47;;;14.76;50.45
9281;BME280;4679;47.966;7.958;2023-02-21T11:23:27;97407.97;;;14.92;49.91
9281;BME280;4679;47.966;7.958;2023-02-21T11:25:31;97407.22;;;15.22;49.60
9281;BME280;4679;47.966;7.958;2023-02-21T11:27:35;97402.13;;;15.45;49.27
9281;BME280;4679;47.966;7.958;2023-02-21T11:29:41;97403.78;;;15.67;48.68
9281;BME280;4679;47.966;7.958;2023-02-21T11:31:44;97399.50;;;15.66;48.36
9281;BME280;4679;47.966;7.958;2023-02-21T11:33:51;97398.13;;;15.53;49.12
9281;BME280;4679;47.966;7.958;2023-02-21T11:36:08;97396.56;;;15.62;48.82
9281;BME280;4679;47.966;7.958;2023-02-21T11:38:31;97383.41;;;15.91;48.48
9281;BME280;4679;47.966;7.958;2023-02-21T11:40:41;97383.66;;;15.95;48.46
9281;BME280;4679;47.966;7.958;2023-02-21T11:42:42;97373.72;;;16.05;48.08
9281;BME280;4679;47.966;7.958;2023-02-21T11:44:46;97381.22;;;16.13;48.37
9281;BME280;4679;47.966;7.958;2023-02-21T11:46:50;97375.91;;;15.98;47.76
9281;BME280;4679;47.966;7.958;2023-02-21T11:49:00;97370.34;;;15.69;48.08
9281;BME280;4679;47.966;7.958;2023-02-21T11:51:07;97366.56;;;15.80;48.36
9281;BME280;4679;47.966;7.958;2023-02-21T11:53:19;97363.66;;;15.62;48.70
9281;BME280;4679;47.966;7.958;2023-02-21T11:55:23;97360.19;;;15.66;48.26
9281;BME280;4679;47.966;7.958;2023-02-21T11:57:40;97358.53;;;15.45;48.44
9281;BME280;4679;47.966;7.958;2023-02-21T11:59:51;97347.59;;;15.31;48.18
9281;BME280;4679;47.966;7.958;2023-02-21T12:02:20;97337.44;;;15.54;47.54
9281;BME280;4679;47.966;7.958;2023-02-21T12:04:46;97341.38;;;16.02;46.74
9281;BME280;4679;47.966;7.958;2023-02-21T12:06:57;97335.44;;;16.05;47.30
9281;BME280;4679;47.966;7.958;2023-02-21T12:09:07;97337.91;;;15.96;47.37
9281;BME280;4679;47.966;7.958;2023-02-21T12:11:18;97332.00;;;15.99;46.70
9281;BME280;4679;47.966;7.958;2023-02-21T12:13:30;97329.06;;;15.96;46.54
9281;BME280;4679;47.966;7.958;2023-02-21T12:15:47;97314.22;;;16.29;46.45
9281;BME280;4679;47.966;7.958;2023-02-21T12:18:03;97316.22;;;16.52;46.00
9281;BME280;4679;47.966;7.958;2023-02-21T12:20:32;97311.53;;;16.29;46.34
9281;BME280;4679;47.966;7.958;2023-02-21T12:22:50;97311.06;;;16.11;46.65
9281;BME280;4679;47.966;7.958;2023-02-21T12:25:10;97307.59;;;16.16;46.01
9281;BME280;4679;47.966;7.958;2023-02-21T12:27:21;97298.22;;;16.13;46.17
9281;BME280;4679;47.966;7.958;2023-02-21T12:29:48;97297.16;;;16.14;46.13
9281;BME280;4679;47.966;7.958;2023-02-21T12:32:04;97286.69;;;16.18;45.78
9281;BME280;4679;47.966;7.958;2023-02-21T12:34:23;97289.06;;;16.19;46.08
9281;BME280;4679;47.966;7.958;2023-02-21T12:36:36;97285.31;;;16.21;45.86
9281;BME280;4679;47.966;7.958;2023-02-21T12:38:52;97279.88;;;16.36;45.50
9281;BME280;4679;47.966;7.958;2023-02-21T12:41:04;97276.13;;;16.42;44.94
9281;BME280;4679;47.966;7.958;2023-02-21T12:43:22;97269.94;;;16.46;45.20
9281;BME280;4679;47.966;7.958;2023-02-21T12:45:40;97265.09;;;16.48;45.06
9281;BME280;4679;47.966;7.958;2023-02-21T12:47:50;97257.91;;;16.44;44.75
9281;BME280;4679;47.966;7.958;2023-02-21T12:50:00;97259.41;;;16.55;44.62
9281;BME280;4679;47.966;7.958;2023-02-21T12:52:08;97254.56;;;16.62;44.59
9281;BME280;4679;47.966;7.958;2023-02-21T12:54:18;97249.41;;;16.76;43.43
9281;BME280;4679;47.966;7.958;2023-02-21T12:56:28;97248.19;;;16.92;43.64
9281;BME280;4679;47.966;7.958;2023-02-21T12:58:34;97238.81;;;17.23;43.57
9281;BME280;4679;47.966;7.958;2023-02-21T13:00:42;97238.97;;;17.32;43.36
9281;BME280;4679;47.966;7.958;2023-02-21T13:02:54;97240.63;;;17.28;43.24
9281;BME280;4679;47.966;7.958;2023-02-21T13:05:04;97238.00;;;17.23;43.13
9281;BME280;4679;47.966;7.958;2023-02-21T13:07:15;97232.53;;;17.04;43.01
9281;BME280;4679;47.966;7.958;2023-02-21T13:09:30;97232.44;;;17.14;43.16
9281;BME280;4679;47.966;7.958;2023-02-21T13:11:38;97233.09;;;17.30;42.62
9281;BME280;4679;47.966;7.958;2023-02-21T13:13:41;97222.84;;;17.37;42.34
9281;BME280;4679;47.966;7.958;2023-02-21T13:15:43;97226.09;;;17.34;41.90
9281;BME280;4679;47.966;7.958;2023-02-21T13:17:57;97221.19;;;17.41;42.28
9281;BME280;4679;47.966;7.958;2023-02-21T13:20:02;97212.69;;;17.34;41.93
9281;BME280;4679;47.966;7.958;2023-02-21T13:24:58;97212.47;;;17.54;41.68
9281;BME280;4679;47.966;7.958;2023-02-21T13:29:33;97198.06;;;17.45;41.51
9281;BME280;4679;47.966;7.958;2023-02-21T13:31:41;97193.59;;;17.59;41.37
9281;BME280;4679;47.966;7.958;2023-02-21T13:33:49;97191.44;;;17.62;41.03
9281;BME280;4679;47.966;7.958;2023-02-21T13:35:52;97193.25;;;17.42;40.87
9281;BME280;4679;47.966;7.958;2023-02-21T13:37:57;97179.16;;;17.32;40.86
9281;BME280;4679;47.966;7.958;2023-02-21T13:40:05;97186.28;;;17.17;40.74
9281;BME280;4679;47.966;7.958;2023-02-21T13:42:14;97176.59;;;17.21;40.76
9281;BME280;4679;47.966;7.958;2023-02-21T13:44:22;97180.13;;;17.17;40.26
9281;BME280;4679;47.966;7.958;2023-02-21T13:49:37;97172.91;;;17.41;40.04
9281;BME280;4679;47.966;7.958;2023-02-21T13:51:47;97167.41;;;17.51;39.71
9281;BME280;4679;47.966;7.958;2023-02-21T13:54:06;97165.66;;;17.66;39.26
9281;BME280;4679;47.966;7.958;2023-02-21T13:56:14;97162.38;;;17.45;39.48
9281;BME280;4679;47.966;7.958;2023-02-21T13:58:31;97151.44;;;17.41;39.64
9281;BME280;4679;47.966;7.958;2023-02-21T14:00:51;97154.56;;;17.48;39.49
9281;BME280;4679;47.966;7.958;2023-02-21T14:02:54;97156.75;;;17.46;39.57
9281;BME280;4679;47.966;7.958;2023-02-21T14:05:02;97149.16;;;17.53;39.19
9281;BME280;4679;47.966;7.958;2023-02-21T14:07:04;97157.78;;;17.93;38.88
9281;BME280;4679;47.966;7.958;2023-02-21T14:09:11;97155.97;;;18.07;38.77
9281;BME280;4679;47.966;7.958;2023-02-21T14:11:20;97152.13;;;18.13;38.71
9281;BME280;4679;47.966;7.958;2023-02-21T14:13:31;97158.59;;;17.93;38.69
9281;BME280;4679;47.966;7.958;2023-02-21T14:15:42;97150.69;;;18.02;38.64
9281;BME280;4679;47.966;7.958;2023-02-21T14:17:46;97144.34;;;17.74;38.84
9281;BME280;4679;47.966;7.958;2023-02-21T14:19:49;97136.88;;;17.71;38.74
9281;BME280;4679;47.966;7.958;2023-02-21T14:21:58;97135.50;;;17.92;38.53
9281;BME280;4679;47.966;7.958;2023-02-21T14:24:05;97140.16;;;18.24;38.43
9281;BME280;4679;47.966;7.958;2023-02-21T14:26:34;97130.50;;;18.05;38.21
9281;BME280;4679;47.966;7.958;2023-02-21T14:29:00;97129.13;;;18.07;38.24
9281;BME280;4679;47.966;7.958;2023-02-21T14:31:02;97136.44;;;18.20;38.35
9281;BME280;4679;47.966;7.958;2023-02-21T14:33:20;97136.81;;;18.33;38.12
9281;BME280;4679;47.966;7.958;2023-02-21T14:35:28;97125.69;;;18.39;38.29
9281;BME280;4679;47.966;7.958;2023-02-21T14:37:34;97129.31;;;18.48;37.77
9281;BME280;4679;47.966;7.958;2023-02-21T14:39:39;97118.16;;;18.55;37.77
9281;BME280;4679;47.966;7.958;2023-02-21T14:41:53;97127.16;;;18.64;37.64
9281;BME280;4679;47.966;7.958;2023-02-21T14:44:11;97121.50;;;18.66;37.67
9281;BME280;4679;47.966;7.958;2023-02-21T14:46:43;97123.03;;;18.53;37.70
9281;BME280;4679;47.966;7.958;2023-02-21T14:51:43;97113.91;;;18.35;37.79
9281;BME280;4679;47.966;7.958;2023-02-21T14:54:03;97120.94;;;18.17;37.80
9281;BME280;4679;47.966;7.958;2023-02-21T14:56:36;97116.13;;;18.14;38.08
9281;BME280;4679;47.966;7.958;2023-02-21T14:59:05;97109.56;;;18.20;37.82
9281;BME280;4679;47.966;7.958;2023-02-21T15:01:14;97108.81;;;18.01;37.70
9281;BME280;4679;47.966;7.958;2023-02-21T15:03:20;97107.72;;;17.83;38.05
9281;BME280;4679;47.966;7.958;2023-02-21T15:05:25;97101.00;;;17.62;38.08
9281;BME280;4679;47.966;7.958;2023-02-21T15:07:32;97095.63;;;17.62;38.15
9281;BME280;4679;47.966;7.958;2023-02-21T15:09:34;97101.00;;;17.62;37.95
9281;BME280;4679;47.966;7.958;2023-02-21T15:11:37;97108.16;;;17.72;37.96
9281;BME280;4679;47.966;7.958;2023-02-21T15:13:40;97102.28;;;17.70;37.85
9281;BME280;4679;47.966;7.958;2023-02-21T15:15:44;97103.44;;;17.64;37.72
9281;BME280;4679;47.966;7.958;2023-02-21T15:17:55;97104.47;;;17.63;38.21
9281;BME280;4679;47.966;7.958;2023-02-21T15:20:03;97101.19;;;17.71;38.01
9281;BME280;4679;47.966;7.958;2023-02-21T15:22:20;97098.19;;;17.53;37.78
9281;BME280;4679;47.966;7.958;2023-02-21T15:24:22;97100.13;;;17.48;38.06
9281;BME280;4679;47.966;7.958;2023-02-21T15:26:25;97102.22;;;17.51;37.65
9281;BME280;4679;47.966;7.958;2023-02-21T15:28:30;97092.34;;;17.46;37.84
9281;BME280;4679;47.966;7.958;2023-02-21T15:30:38;97096.41;;;17.44;37.65
9281;BME280;4679;47.966;7.958;2023-02-21T15:32:41;97094.47;;;17.49;37.82
9281;BME280;4679;47.966;7.958;2023-02-21T15:34:45;97094.97;;;17.51;37.64
9281;BME280;4679;47.966;7.958;2023-02-21T15:36:53;97094.75;;;17.48;37.68
9281;BME280;4679;47.966;7.958;2023-02-21T15:39:05;97097.72;;;17.46;37.23
9281;BME280;4679;47.966;7.958;2023-02-21T15:41:14;97093.00;;;17.38;37.45
9281;BME280;4679;47.966;7.958;2023-02-21T15:43:38;97093.63;;;17.30;37.95
9281;BME280;4679;47.966;7.958;2023-02-21T15:45:44;97092.91;;;17.25;37.78
9281;BME280;4679;47.966;7.958;2023-02-21T15:47:49;97090.78;;;17.21;37.67
9281;BME280;4679;47.966;7.958;2023-02-21T15:49:56;97092.06;;;17.05;37.93
9281;BME280;4679;47.966;7.958;2023-02-21T15:52:01;97090.94;;;16.82;38.57
9281;BME280;4679;47.966;7.958;2023-02-21T15:54:07;97090.09;;;16.58;38.50
9281;BME280;4679;47.966;7.958;2023-02-21T15:56:19;97088.16;;;16.35;39.48
9281;BME280;4679;47.966;7.958;2023-02-21T15:58:23;97090.38;;;16.23;39.43
9281;BME280;4679;47.966;7.958;2023-02-21T16:00:28;97092.38;;;16.07;39.77
9281;BME280;4679;47.966;7.958;2023-02-21T16:02:30;97092.22;;;15.93;39.41
9281;BME280;4679;47.966;7.958;2023-02-21T16:04:36;97090.41;;;15.89;40.00
9281;BME280;4679;47.966;7.958;2023-02-21T16:06:44;97084.25;;;15.88;40.29
9281;BME280;4679;47.966;7.958;2023-02-21T16:08:58;97083.25;;;15.74;40.36
9281;BME280;4679;47.966;7.958;2023-02-21T16:11:01;97083.06;;;15.60;40.55
9281;BME280;4679;47.966;7.958;2023-02-21T16:13:03;97074.81;;;15.46;41.24
9281;BME280;4679;47.966;7.958;2023-02-21T16:15:07;97071.38;;;15.41;40.93
9281;BME280;4679;47.966;7.958;2023-02-21T16:17:21;97080.50;;;15.30;41.13
9281;BME280;4679;47.966;7.958;2023-02-21T16:19:30;97072.81;;;15.13;41.72
9281;BME280;4679;47.966;7.958;2023-02-21T16:21:34;97071.31;;;14.87;42.32
9281;BME280;4679;47.966;7.958;2023-02-21T16:23:38;97072.16;;;14.72;42.16
9281;BME280;4679;47.966;7.958;2023-02-21T16:25:58;97067.38;;;14.59;42.02
9281;BME280;4679;47.966;7.958;2023-02-21T16:28:00;97069.28;;;14.48;42.43
9281;BME280;4679;47.966;7.958;2023-02-21T16:30:03;97074.63;;;14.43;42.67
9281;BME280;4679;47.966;7.958;2023-02-21T16:32:06;97063.13;;;14.32;42.90
9281;BME280;4679;47.966;7.958;2023-02-21T16:34:15;97067.94;;;14.20;43.47
9281;BME280;4679;47.966;7.958;2023-02-21T16:36:20;97073.00;;;14.01;43.60
9281;BME280;4679;47.966;7.958;2023-02-21T16:38:26;97075.66;;;13.86;43.67
9281;BME280;4679;47.966;7.958;2023-02-21T16:40:29;97075.09;;;13.69;44.00
9281;BME280;4679;47.966;7.958;2023-02-21T16:42:31;97077.47;;;13.55;44.16
9281;BME280;4679;47.966;7.958;2023-02-21T16:44:33;97078.22;;;13.41;44.50
9281;BME280;4679;47.966;7.958;2023-02-21T16:46:34;97081.13;;;13.29;44.77
9281;BME280;4679;47.966;7.958;2023-02-21T16:48:36;97079.44;;;13.13;45.01
9281;BME280;4679;47.966;7.958;2023-02-21T16:50:39;97078.56;;;13.02;45.02
9281;BME280;4679;47.966;7.958;2023-02-21T16:52:41;97073.50;;;13.00;45.18
9281;BME280;4679;47.966;7.958;2023-02-21T16:54:44;97072.97;;;12.93;45.40
9281;BME280;4679;47.966;7.958;2023-02-21T16:56:47;97076.34;;;12.79;45.91
9281;BME280;4679;47.966;7.958;2023-02-21T16:58:53;97072.56;;;12.69;45.56
9281;BME280;4679;47.966;7.958;2023-02-21T17:00:57;97084.47;;;12.57;46.03
9281;BME280;4679;47.966;7.958;2023-02-21T17:03:00;97085.66;;;12.39;46.61
9281;BME280;4679;47.966;7.958;2023-02-21T17:05:01;97098.59;;;12.25;46.46
9281;BME280;4679;47.966;7.958;2023-02-21T17:07:04;97093.78;;;12.17;46.78
9281;BME280;4679;47.966;7.958;2023-02-21T17:09:17;97093.72;;;12.12;46.91
9281;BME280;4679;47.966;7.958;2023-02-21T17:11:21;97098.91;;;11.97;47.17
9281;BME280;4679;47.966;7.958;2023-02-21T17:13:22;97093.63;;;11.75;47.69
9281;BME280;4679;47.966;7.958;2023-02-21T17:15:24;97099.88;;;11.64;47.76
9281;BME280;4679;47.966;7.958;2023-02-21T17:17:27;97095.97;;;11.45;48.29
9281;BME280;4679;47.966;7.958;2023-02-21T17:19:28;97108.31;;;11.34;48.79
9281;BME280;4679;47.966;7.958;2023-02-21T17:21:30;97096.31;;;11.26;49.09
9281;BME280;4679;47.966;7.958;2023-02-21T17:23:32;97107.06;;;11.15;49.17
9281;BME280;4679;47.966;7.958;2023-02-21T17:25:34;97105.06;;;11.05;48.40
9281;BME280;4679;47.966;7.958;2023-02-21T17:27:37;97115.72;;;10.88;48.87
9281;BME280;4679;47.966;7.958;2023-02-21T17:29:38;97115.34;;;10.80;49.77
9281;BME280;4679;47.966;7.958;2023-02-21T17:31:40;97113.06;;;10.67;48.89
9281;BME280;4679;47.966;7.958;2023-02-21T17:33:42;97105.97;;;10.55;49.17
9281;BME280;4679;47.966;7.958;2023-02-21T17:35:43;97112.59;;;10.53;49.73
9281;BME280;4679;47.966;7.958;2023-02-21T17:37:45;97124.41;;;10.45;49.75
9281;BME280;4679;47.966;7.958;2023-02-21T17:39:51;97116.31;;;10.35;50.19
9281;BME280;4679;47.966;7.958;2023-02-21T17:41:52;97121.13;;;10.21;51.01
9281;BME280;4679;47.966;7.958;2023-02-21T17:43:55;97118.09;;;10.01;50.18
9281;BME280;4679;47.966;7.958;2023-02-21T17:45:57;97120.38;;;9.81;51.45
9281;BME280;4679;47.966;7.958;2023-02-21T17:47:59;97123.19;;;9.74;51.69
9281;BME280;4679;47.966;7.958;2023-02-21T17:50:00;97121.50;;;9.68;51.18
9281;BME280;4679;47.966;7.958;2023-02-21T17:52:03;97123.56;;;9.66;51.78
9281;BME280;4679;47.966;7.958;2023-02-21T17:54:05;97126.44;;;9.65;51.03
9281;BME280;4679;47.966;7.958;2023-02-21T17:56:06;97130.31;;;9.57;51.34
9281;BME280;4679;47.966;7.958;2023-02-21T17:58:08;97125.13;;;9.50;51.80
9281;BME280;4679;47.966;7.958;2023-02-21T18:00:17;97117.13;;;9.45;51.32
9281;BME280;4679;47.966;7.958;2023-02-21T18:02:21;97113.09;;;9.43;51.47
9281;BME280;4679;47.966;7.958;2023-02-21T18:04:23;97121.06;;;9.31;52.08
9281;BME280;4679;47.966;7.958;2023-02-21T18:06:25;97111.41;;;9.25;52.24
9281;BME280;4679;47.966;7.958;2023-02-21T18:08:27;97119.06;;;9.10;52.35
9281;BME280;4679;47.966;7.958;2023-02-21T18:10:28;97115.47;;;9.04;52.15
9281;BME280;4679;47.966;7.958;2023-02-21T18:12:30;97103.78;;;9.00;52.64
9281;BME280;4679;47.966;7.958;2023-02-21T18:14:33;97111.84;;;8.94;52.77
9281;BME280;4679;47.966;7.958;2023-02-21T18:16:36;97111.72;;;8.89;52.70
9281;BME280;4679;47.966;7.958;2023-02-21T18:18:38;97104.50;;;8.84;52.82
9281;BME280;4679;47.966;7.958;2023-02-21T18:20:39;97105.63;;;8.76;52.94
9281;BME280;4679;47.966;7.958;2023-02-21T18:22:42;97096.31;;;8.74;52.84